sensor_id;sensor_type;location;lat;lon;timestamp;P1;durP1;ratioP1;P2;durP2;ratioP2
44862;SDS011;30597;49.628;10.850;2024-03-02T00:00:18;6.10;;;5.50;;
44862;SDS011;30597;49.628;10.850;2024-03-02T00:02:46;9.30;;;5.53;;
44862;SDS011;30597;49.628;10.850;2024-03-02T00:05:18;6.70;;;5.67;;
44862;SDS011;30597;49.628;10.850;2024-03-02T00:07:46;6.40;;;5.70;;
44862;SDS011;30597;49.628;10.850;2024-03-02T00:10:19;7.90;;;6.23;;
44862;SDS011;30597;49.628;10.850;2024-03-02T00:12:48;9.70;;;5.70;;
44862;SDS011;30597;49.628;10.850;2024-03-02T00:17:52;6.77;;;6.07;;
44862;SDS011;30597;49.628;10.850;2024-03-02T00:20:18;6.33;;;5.73;;
44862;SDS011;30597;49.628;10.850;2024-03-02T00:22:47;6.70;;;6.00;;
44862;SDS011;30597;49.628;10.850;2024-03-02T00:25:13;7.40;;;5.20;;
44862;SDS011;30597;49.628;10.850;2024-03-02T00:27:39;7.03;;;5.73;;
44862;SDS011;30597;49.628;10.850;2024-03-02T00:30:06;5.60;;;5.10;;
44862;SDS011;30597;49.628;10.850;2024-03-02T00:33:01;5.70;;;5.20;;
44862;SDS011;30597;49.628;10.850;2024-03-02T00:35:27;6.13;;;5.03;;
44862;SDS011;30597;49.628;10.850;2024-03-02T00:37:52;6.33;;;5.10;;
44862;SDS011;30597;49.628;10.850;2024-03-02T00:40:19;5.43;;;4.93;;
44862;SDS011;30597;49.628;10.850;2024-03-02T00:42:45;5.27;;;4.80;;
44862;SDS011;30597;49.628;10.850;2024-03-02T00:45:10;7.47;;;5.70;;
44862;SDS011;30597;49.628;10.850;2024-03-02T00:47:39;5.50;;;4.93;;
44862;SDS011;30597;49.628;10.850;2024-03-02T00:50:05;6.00;;;5.43;;
44862;SDS011;30597;49.628;10.850;2024-03-02T00:52:31;5.77;;;5.23;;
44862;SDS011;30597;49.628;10.850;2024-03-02T00:54:58;7.93;;;5.73;;
44862;SDS011;30597;49.628;10.850;2024-03-02T00:57:24;5.80;;;5.20;;
44862;SDS011;30597;49.628;10.850;2024-03-02T00:59:51;8.00;;;5.30;;
44862;SDS011;30597;49.628;10.850;2024-03-02T01:02:16;6.47;;;5.70;;
44862;SDS011;30597;49.628;10.850;2024-03-02T01:04:45;8.23;;;5.57;;
44862;SDS011;30597;49.628;10.850;2024-03-02T01:07:10;8.30;;;5.37;;
44862;SDS011;30597;49.628;10.850;2024-03-02T01:09:36;7.77;;;6.97;;
44862;SDS011;30597;49.628;10.850;2024-03-02T01:12:01;6.57;;;5.97;;
44862;SDS011;30597;49.628;10.850;2024-03-02T01:14:27;6.80;;;5.23;;
44862;SDS011;30597;49.628;10.850;2024-03-02T01:16:53;6.17;;;5.67;;
44862;SDS011;30597;49.628;10.850;2024-03-02T01:19:18;6.37;;;5.77;;
44862;SDS011;30597;49.628;10.850;2024-03-02T01:21:44;5.63;;;5.13;;
44862;SDS011;30597;49.628;10.850;2024-03-02T01:24:09;6.27;;;5.77;;
44862;SDS011;30597;49.628;10.850;2024-03-02T01:26:35;6.70;;;6.10;;
44862;SDS011;30597;49.628;10.850;2024-03-02T01:29:00;5.80;;;5.20;;
44862;SDS011;30597;49.628;10.850;2024-03-02T01:31:26;7.00;;;6.30;;
44862;SDS011;30597;49.628;10.850;2024-03-02T01:33:52;7.90;;;6.33;;
44862;SDS011;30597;49.628;10.850;2024-03-02T01:36:17;6.27;;;5.77;;
44862;SDS011;30597;49.628;10.850;2024-03-02T01:38:43;6.90;;;6.20;;
44862;SDS011;30597;49.628;10.850;2024-03-02T01:41:09;6.47;;;5.70;;
44862;SDS011;30597;49.628;10.850;2024-03-02T01:43:34;5.60;;;5.10;;
44862;SDS011;30597;49.628;10.850;2024-03-02T01:46:00;6.60;;;6.00;;
44862;SDS011;30597;49.628;10.850;2024-03-02T01:48:25;6.10;;;5.63;;
44862;SDS011;30597;49.628;10.850;2024-03-02T01:50:51;6.07;;;5.57;;
44862;SDS011;30597;49.628;10.850;2024-03-02T01:53:17;6.17;;;5.30;;
44862;SDS011;30597;49.628;10.850;2024-03-02T01:55:42;5.10;;;4.70;;
44862;SDS011;30597;49.628;10.850;2024-03-02T01:58:08;5.67;;;5.17;;
44862;SDS011;30597;49.628;10.850;2024-03-02T02:00:34;9.50;;;5.87;;
44862;SDS011;30597;49.628;10.850;2024-03-02T02:03:00;5.50;;;5.00;;
44862;SDS011;30597;49.628;10.850;2024-03-02T02:05:26;5.63;;;5.13;;
44862;SDS011;30597;49.628;10.850;2024-03-02T02:07:51;5.47;;;4.97;;
44862;SDS011;30597;49.628;10.850;2024-03-02T02:10:17;5.97;;;5.47;;
44862;SDS011;30597;49.628;10.850;2024-03-02T02:12:42;5.20;;;4.80;;
44862;SDS011;30597;49.628;10.850;2024-03-02T02:15:21;5.67;;;5.17;;
44862;SDS011;30597;49.628;10.850;2024-03-02T02:17:46;6.30;;;5.80;;
44862;SDS011;30597;49.628;10.850;2024-03-02T02:20:12;5.90;;;5.30;;
44862;SDS011;30597;49.628;10.850;2024-03-02T02:22:38;5.70;;;5.03;;
44862;SDS011;30597;49.628;10.850;2024-03-02T02:25:03;6.53;;;5.80;;
44862;SDS011;30597;49.628;10.850;2024-03-02T02:27:29;5.27;;;4.87;;
44862;SDS011;30597;49.628;10.850;2024-03-02T02:29:55;6.33;;;5.37;;
44862;SDS011;30597;49.628;10.850;2024-03-02T02:32:21;6.40;;;5.80;;
44862;SDS011;30597;49.628;10.850;2024-03-02T02:34:46;5.60;;;5.10;;
44862;SDS011;30597;49.628;10.850;2024-03-02T02:37:16;5.80;;;5.30;;
44862;SDS011;30597;49.628;10.850;2024-03-02T02:39:42;5.60;;;5.10;;
44862;SDS011;30597;49.628;10.850;2024-03-02T02:42:08;4.97;;;4.57;;
44862;SDS011;30597;49.628;10.850;2024-03-02T02:44:34;5.80;;;5.30;;
44862;SDS011;30597;49.628;10.850;2024-03-02T02:46:59;5.07;;;4.60;;
44862;SDS011;30597;49.628;10.850;2024-03-02T02:49:25;5.30;;;4.90;;
44862;SDS011;30597;49.628;10.850;2024-03-02T02:51:51;5.70;;;5.20;;
44862;SDS011;30597;49.628;10.850;2024-03-02T02:54:17;5.57;;;5.17;;
44862;SDS011;30597;49.628;10.850;2024-03-02T02:56:42;5.87;;;5.30;;
44862;SDS011;30597;49.628;10.850;2024-03-02T02:59:08;5.20;;;4.70;;
44862;SDS011;30597;49.628;10.850;2024-03-02T03:01:33;5.20;;;4.80;;
44862;SDS011;30597;49.628;10.850;2024-03-02T03:03:59;6.37;;;5.77;;
44862;SDS011;30597;49.628;10.850;2024-03-02T03:06:24;5.60;;;5.10;;
44862;SDS011;30597;49.628;10.850;2024-03-02T03:08:50;5.17;;;4.67;;
44862;SDS011;30597;49.628;10.850;2024-03-02T03:11:16;5.50;;;5.00;;
44862;SDS011;30597;49.628;10.850;2024-03-02T03:13:41;5.00;;;4.60;;
44862;SDS011;30597;49.628;10.850;2024-03-02T03:16:07;5.67;;;5.17;;
44862;SDS011;30597;49.628;10.850;2024-03-02T03:18:34;5.20;;;4.70;;
44862;SDS011;30597;49.628;10.850;2024-03-02T03:20:59;5.33;;;4.90;;
44862;SDS011;30597;49.628;10.850;2024-03-02T03:23:25;5.23;;;4.73;;
44862;SDS011;30597;49.628;10.850;2024-03-02T03:25:50;5.03;;;4.60;;
44862;SDS011;30597;49.628;10.850;2024-03-02T03:28:16;5.53;;;5.10;;
44862;SDS011;30597;49.628;10.850;2024-03-02T03:30:41;5.40;;;4.90;;
44862;SDS011;30597;49.628;10.850;2024-03-02T03:33:08;4.70;;;4.30;;
44862;SDS011;30597;49.628;10.850;2024-03-02T03:35:33;5.93;;;5.43;;
44862;SDS011;30597;49.628;10.850;2024-03-02T03:37:59;5.07;;;4.67;;
44862;SDS011;30597;49.628;10.850;2024-03-02T03:40:25;5.70;;;5.20;;
44862;SDS011;30597;49.628;10.850;2024-03-02T03:42:51;4.80;;;4.40;;
44862;SDS011;30597;49.628;10.850;2024-03-02T03:45:17;4.97;;;4.53;;
44862;SDS011;30597;49.628;10.850;2024-03-02T03:47:42;4.80;;;4.40;;
44862;SDS011;30597;49.628;10.850;2024-03-02T03:50:08;5.23;;;4.73;;
44862;SDS011;30597;49.628;10.850;2024-03-02T03:52:34;5.27;;;4.87;;
44862;SDS011;30597;49.628;10.850;2024-03-02T03:54:59;5.33;;;4.83;;
44862;SDS011;30597;49.628;10.850;2024-03-02T03:57:25;5.40;;;4.90;;
44862;SDS011;30597;49.628;10.850;2024-03-02T03:59:51;4.43;;;4.13;;
44862;SDS011;30597;49.628;10.850;2024-03-02T04:02:17;5.57;;;4.90;;
44862;SDS011;30597;49.628;10.850;2024-03-02T04:04:43;5.03;;;4.63;;
44862;SDS011;30597;49.628;10.850;2024-03-02T04:07:08;5.20;;;4.70;;
44862;SDS011;30597;49.628;10.850;2024-03-02T04:09:34;4.90;;;4.50;;
44862;SDS011;30597;49.628;10.850;2024-03-02T04:12:00;5.50;;;5.00;;
44862;SDS011;30597;49.628;10.850;2024-03-02T04:14:25;6.00;;;4.40;;
44862;SDS011;30597;49.628;10.850;2024-03-02T04:16:51;5.07;;;4.57;;
44862;SDS011;30597;49.628;10.850;2024-03-02T04:19:16;4.90;;;4.50;;
44862;SDS011;30597;49.628;10.850;2024-03-02T04:21:42;4.30;;;4.00;;
44862;SDS011;30597;49.628;10.850;2024-03-02T04:24:07;4.30;;;4.00;;
44862;SDS011;30597;49.628;10.850;2024-03-02T04:26:33;4.77;;;4.27;;
44862;SDS011;30597;49.628;10.850;2024-03-02T04:28:58;4.63;;;4.23;;
44862;SDS011;30597;49.628;10.850;2024-03-02T04:31:24;4.93;;;4.43;;
44862;SDS011;30597;49.628;10.850;2024-03-02T04:33:49;4.50;;;4.13;;
44862;SDS011;30597;49.628;10.850;2024-03-02T04:36:15;4.67;;;4.27;;
44862;SDS011;30597;49.628;10.850;2024-03-02T04:38:40;5.00;;;4.50;;
44862;SDS011;30597;49.628;10.850;2024-03-02T04:41:06;5.17;;;4.07;;
44862;SDS011;30597;49.628;10.850;2024-03-02T04:43:32;4.90;;;4.50;;
44862;SDS011;30597;49.628;10.850;2024-03-02T04:45:58;5.27;;;4.20;;
44862;SDS011;30597;49.628;10.850;2024-03-02T04:48:24;5.60;;;4.40;;
44862;SDS011;30597;49.628;10.850;2024-03-02T04:50:50;4.87;;;4.47;;
44862;SDS011;30597;49.628;10.850;2024-03-02T04:53:15;3.90;;;3.60;;
44862;SDS011;30597;49.628;10.850;2024-03-02T04:55:41;4.70;;;4.30;;
44862;SDS011;30597;49.628;10.850;2024-03-02T04:58:06;4.50;;;4.10;;
44862;SDS011;30597;49.628;10.850;2024-03-02T05:00:32;4.97;;;4.57;;
44862;SDS011;30597;49.628;10.850;2024-03-02T05:02:58;4.67;;;4.27;;
44862;SDS011;30597;49.628;10.850;2024-03-02T05:05:24;4.77;;;4.37;;
44862;SDS011;30597;49.628;10.850;2024-03-02T05:07:49;5.13;;;4.73;;
44862;SDS011;30597;49.628;10.850;2024-03-02T05:10:15;4.20;;;3.80;;
44862;SDS011;30597;49.628;10.850;2024-03-02T05:12:41;4.80;;;4.40;;
44862;SDS011;30597;49.628;10.850;2024-03-02T05:15:10;4.20;;;3.90;;
44862;SDS011;30597;49.628;10.850;2024-03-02T05:17:36;4.20;;;3.87;;
44862;SDS011;30597;49.628;10.850;2024-03-02T05:20:03;5.10;;;4.70;;
44862;SDS011;30597;49.628;10.850;2024-03-02T05:22:35;4.70;;;4.30;;
44862;SDS011;30597;49.628;10.850;2024-03-02T05:25:02;4.10;;;3.70;;
44862;SDS011;30597;49.628;10.850;2024-03-02T05:27:28;4.00;;;3.60;;
44862;SDS011;30597;49.628;10.850;2024-03-02T05:29:54;3.93;;;3.53;;
44862;SDS011;30597;49.628;10.850;2024-03-02T05:32:19;4.03;;;3.63;;
44862;SDS011;30597;49.628;10.850;2024-03-02T05:34:45;4.83;;;4.43;;
44862;SDS011;30597;49.628;10.850;2024-03-02T05:37:11;4.10;;;3.70;;
44862;SDS011;30597;49.628;10.850;2024-03-02T05:39:36;4.90;;;4.50;;
44862;SDS011;30597;49.628;10.850;2024-03-02T05:42:02;4.23;;;3.83;;
44862;SDS011;30597;49.628;10.850;2024-03-02T05:44:28;3.97;;;3.57;;
44862;SDS011;30597;49.628;10.850;2024-03-02T05:46:54;4.37;;;3.97;;
44862;SDS011;30597;49.628;10.850;2024-03-02T05:49:19;4.00;;;3.70;;
44862;SDS011;30597;49.628;10.850;2024-03-02T05:51:45;4.07;;;3.77;;
44862;SDS011;30597;49.628;10.850;2024-03-02T05:54:10;4.40;;;4.00;;
44862;SDS011;30597;49.628;10.850;2024-03-02T05:56:36;3.83;;;3.53;;
44862;SDS011;30597;49.628;10.850;2024-03-02T05:59:02;4.23;;;3.90;;
44862;SDS011;30597;49.628;10.850;2024-03-02T06:01:48;3.97;;;3.67;;
44862;SDS011;30597;49.628;10.850;2024-03-02T06:04:15;4.70;;;4.30;;
44862;SDS011;30597;49.628;10.850;2024-03-02T06:06:41;4.83;;;4.43;;
44862;SDS011;30597;49.628;10.850;2024-03-02T06:09:07;4.77;;;4.37;;
44862;SDS011;30597;49.628;10.850;2024-03-02T06:11:36;5.20;;;4.80;;
44862;SDS011;30597;49.628;10.850;2024-03-02T06:14:03;4.40;;;4.00;;
44862;SDS011;30597;49.628;10.850;2024-03-02T06:16:29;4.63;;;4.23;;
44862;SDS011;30597;49.628;10.850;2024-03-02T06:18:55;4.47;;;4.10;;
44862;SDS011;30597;49.628;10.850;2024-03-02T06:21:22;4.00;;;3.60;;
44862;SDS011;30597;49.628;10.850;2024-03-02T06:23:48;4.30;;;4.00;;
44862;SDS011;30597;49.628;10.850;2024-03-02T06:26:14;5.10;;;4.60;;
44862;SDS011;30597;49.628;10.850;2024-03-02T06:28:40;4.37;;;4.00;;
44862;SDS011;30597;49.628;10.850;2024-03-02T06:31:05;4.80;;;4.40;;
44862;SDS011;30597;49.628;10.850;2024-03-02T06:33:31;4.17;;;3.77;;
44862;SDS011;30597;49.628;10.850;2024-03-02T06:35:56;4.07;;;3.77;;
44862;SDS011;30597;49.628;10.850;2024-03-02T06:38:22;4.83;;;4.43;;
44862;SDS011;30597;49.628;10.850;2024-03-02T06:40:47;5.00;;;3.40;;
44862;SDS011;30597;49.628;10.850;2024-03-02T06:43:13;4.00;;;3.67;;
44862;SDS011;30597;49.628;10.850;2024-03-02T06:45:38;4.90;;;4.50;;
44862;SDS011;30597;49.628;10.850;2024-03-02T06:48:04;5.63;;;4.20;;
44862;SDS011;30597;49.628;10.850;2024-03-02T06:50:30;4.60;;;4.20;;
44862;SDS011;30597;49.628;10.850;2024-03-02T06:52:55;4.27;;;3.87;;
44862;SDS011;30597;49.628;10.850;2024-03-02T06:55:21;4.60;;;4.20;;
44862;SDS011;30597;49.628;10.850;2024-03-02T06:57:47;4.50;;;4.10;;
44862;SDS011;30597;49.628;10.850;2024-03-02T07:00:13;5.80;;;4.33;;
44862;SDS011;30597;49.628;10.850;2024-03-02T07:02:39;5.47;;;5.00;;
44862;SDS011;30597;49.628;10.850;2024-03-02T07:05:06;5.47;;;5.00;;
44862;SDS011;30597;49.628;10.850;2024-03-02T07:07:33;5.47;;;4.97;;
44862;SDS011;30597;49.628;10.850;2024-03-02T07:10:00;5.83;;;5.33;;
44862;SDS011;30597;49.628;10.850;2024-03-02T07:12:25;6.20;;;5.23;;
44862;SDS011;30597;49.628;10.850;2024-03-02T07:14:51;5.73;;;5.07;;
44862;SDS011;30597;49.628;10.850;2024-03-02T07:17:29;5.90;;;5.40;;
44862;SDS011;30597;49.628;10.850;2024-03-02T07:19:55;6.07;;;5.50;;
44862;SDS011;30597;49.628;10.850;2024-03-02T07:22:21;5.43;;;4.93;;
44862;SDS011;30597;49.628;10.850;2024-03-02T07:24:47;6.40;;;5.80;;
44862;SDS011;30597;49.628;10.850;2024-03-02T07:27:14;6.30;;;5.70;;
44862;SDS011;30597;49.628;10.850;2024-03-02T07:29:40;5.17;;;4.67;;
44862;SDS011;30597;49.628;10.850;2024-03-02T07:32:06;6.90;;;6.33;;
44862;SDS011;30597;49.628;10.850;2024-03-02T07:34:32;5.83;;;5.33;;
44862;SDS011;30597;49.628;10.850;2024-03-02T07:36:58;6.00;;;5.50;;
44862;SDS011;30597;49.628;10.850;2024-03-02T07:39:23;6.10;;;5.50;;
44862;SDS011;30597;49.628;10.850;2024-03-02T07:41:49;5.67;;;5.17;;
44862;SDS011;30597;49.628;10.850;2024-03-02T07:44:15;7.13;;;5.17;;
44862;SDS011;30597;49.628;10.850;2024-03-02T07:46:41;6.30;;;5.70;;
44862;SDS011;30597;49.628;10.850;2024-03-02T07:49:07;6.23;;;5.73;;
44862;SDS011;30597;49.628;10.850;2024-03-02T07:51:33;6.43;;;5.83;;
44862;SDS011;30597;49.628;10.850;2024-03-02T07:53:59;6.10;;;5.60;;
44862;SDS011;30597;49.628;10.850;2024-03-02T07:56:25;6.20;;;5.63;;
44862;SDS011;30597;49.628;10.850;2024-03-02T07:58:51;8.73;;;6.37;;
44862;SDS011;30597;49.628;10.850;2024-03-02T08:01:16;6.30;;;5.70;;
44862;SDS011;30597;49.628;10.850;2024-03-02T08:03:42;6.50;;;5.90;;
44862;SDS011;30597;49.628;10.850;2024-03-02T08:06:13;6.83;;;6.00;;
44862;SDS011;30597;49.628;10.850;2024-03-02T08:08:40;5.60;;;5.10;;
44862;SDS011;30597;49.628;10.850;2024-03-02T08:11:05;6.23;;;5.73;;
44862;SDS011;30597;49.628;10.850;2024-03-02T08:13:31;5.90;;;5.40;;
44862;SDS011;30597;49.628;10.850;2024-03-02T08:15:56;5.97;;;5.37;;
44862;SDS011;30597;49.628;10.850;2024-03-02T08:18:22;5.83;;;5.33;;
44862;SDS011;30597;49.628;10.850;2024-03-02T08:20:48;5.80;;;5.40;;
44862;SDS011;30597;49.628;10.850;2024-03-02T08:23:13;5.43;;;5.03;;
44862;SDS011;30597;49.628;10.850;2024-03-02T08:25:39;6.30;;;5.80;;
44862;SDS011;30597;49.628;10.850;2024-03-02T08:28:04;5.70;;;5.30;;
44862;SDS011;30597;49.628;10.850;2024-03-02T08:30:31;5.93;;;5.37;;
44862;SDS011;30597;49.628;10.850;2024-03-02T08:32:56;5.63;;;5.10;;
44862;SDS011;30597;49.628;10.850;2024-03-02T08:35:22;5.40;;;4.97;;
44862;SDS011;30597;49.628;10.850;2024-03-02T08:37:48;5.97;;;5.47;;
44862;SDS011;30597;49.628;10.850;2024-03-02T08:40:13;4.93;;;4.53;;
44862;SDS011;30597;49.628;10.850;2024-03-02T08:42:39;5.63;;;5.17;;
44862;SDS011;30597;49.628;10.850;2024-03-02T08:45:06;5.40;;;5.00;;
44862;SDS011;30597;49.628;10.850;2024-03-02T08:47:32;5.63;;;5.23;;
44862;SDS011;30597;49.628;10.850;2024-03-02T08:49:58;5.33;;;4.93;;
44862;SDS011;30597;49.628;10.850;2024-03-02T08:52:24;5.00;;;4.60;;
44862;SDS011;30597;49.628;10.850;2024-03-02T08:54:49;5.40;;;4.90;;
44862;SDS011;30597;49.628;10.850;2024-03-02T08:57:15;5.17;;;4.77;;
44862;SDS011;30597;49.628;10.850;2024-03-02T08:59:40;4.87;;;4.57;;
44862;SDS011;30597;49.628;10.850;2024-03-02T09:02:06;4.90;;;4.50;;
44862;SDS011;30597;49.628;10.850;2024-03-02T09:04:32;4.90;;;4.40;;
44862;SDS011;30597;49.628;10.850;2024-03-02T09:06:57;4.40;;;4.00;;
44862;SDS011;30597;49.628;10.850;2024-03-02T09:09:23;4.93;;;4.53;;
44862;SDS011;30597;49.628;10.850;2024-03-02T09:11:48;5.33;;;4.83;;
44862;SDS011;30597;49.628;10.850;2024-03-02T09:14:14;4.57;;;4.17;;
44862;SDS011;30597;49.628;10.850;2024-03-02T09:16:40;4.77;;;4.37;;
44862;SDS011;30597;49.628;10.850;2024-03-02T09:19:06;5.00;;;4.60;;
44862;SDS011;30597;49.628;10.850;2024-03-02T09:21:31;4.50;;;4.20;;
44862;SDS011;30597;49.628;10.850;2024-03-02T09:23:57;5.00;;;4.60;;
44862;SDS011;30597;49.628;10.850;2024-03-02T09:26:22;4.10;;;3.80;;
44862;SDS011;30597;49.628;10.850;2024-03-02T09:28:49;5.60;;;3.73;;
44862;SDS011;30597;49.628;10.850;2024-03-02T09:31:15;4.83;;;4.37;;
44862;SDS011;30597;49.628;10.850;2024-03-02T09:33:41;4.57;;;4.17;;
44862;SDS011;30597;49.628;10.850;2024-03-02T09:36:16;4.90;;;4.50;;
44862;SDS011;30597;49.628;10.850;2024-03-02T09:38:43;4.70;;;4.40;;
44862;SDS011;30597;49.628;10.850;2024-03-02T09:41:09;4.23;;;3.93;;
44862;SDS011;30597;49.628;10.850;2024-03-02T09:43:34;4.30;;;4.00;;
44862;SDS011;30597;49.628;10.850;2024-03-02T09:46:00;4.10;;;3.80;;
44862;SDS011;30597;49.628;10.850;2024-03-02T09:48:26;3.97;;;3.70;;
44862;SDS011;30597;49.628;10.850;2024-03-02T09:50:51;4.33;;;3.93;;
44862;SDS011;30597;49.628;10.850;2024-03-02T09:53:17;3.90;;;3.60;;
44862;SDS011;30597;49.628;10.850;2024-03-02T09:55:46;3.73;;;3.50;;
44862;SDS011;30597;49.628;10.850;2024-03-02T09:58:12;5.23;;;4.83;;
44862;SDS011;30597;49.628;10.850;2024-03-02T10:00:37;4.53;;;4.17;;
44862;SDS011;30597;49.628;10.850;2024-03-02T10:03:03;3.80;;;3.50;;
44862;SDS011;30597;49.628;10.850;2024-03-02T10:05:30;3.60;;;3.33;;
44862;SDS011;30597;49.628;10.850;2024-03-02T10:08:03;3.60;;;3.37;;
44862;SDS011;30597;49.628;10.850;2024-03-02T10:10:38;4.20;;;3.90;;
44862;SDS011;30597;49.628;10.850;2024-03-02T10:13:08;3.33;;;3.13;;
44862;SDS011;30597;49.628;10.850;2024-03-02T10:15:35;3.73;;;3.53;;
44862;SDS011;30597;49.628;10.850;2024-03-02T10:18:02;3.60;;;3.40;;
44862;SDS011;30597;49.628;10.850;2024-03-02T10:20:33;4.10;;;3.80;;
44862;SDS011;30597;49.628;10.850;2024-03-02T10:23:12;3.60;;;3.30;;
44862;SDS011;30597;49.628;10.850;2024-03-02T10:25:42;4.07;;;3.77;;
44862;SDS011;30597;49.628;10.850;2024-03-02T10:28:08;3.73;;;3.47;;
44862;SDS011;30597;49.628;10.850;2024-03-02T10:30:34;3.87;;;3.57;;
44862;SDS011;30597;49.628;10.850;2024-03-02T10:33:01;3.63;;;3.33;;
44862;SDS011;30597;49.628;10.850;2024-03-02T10:35:27;3.50;;;3.20;;
44862;SDS011;30597;49.628;10.850;2024-03-02T10:37:53;3.70;;;3.40;;
44862;SDS011;30597;49.628;10.850;2024-03-02T10:40:22;4.33;;;4.00;;
44862;SDS011;30597;49.628;10.850;2024-03-02T10:42:48;4.00;;;3.57;;
44862;SDS011;30597;49.628;10.850;2024-03-02T10:45:15;3.70;;;3.40;;
44862;SDS011;30597;49.628;10.850;2024-03-02T10:47:44;3.63;;;3.33;;
44862;SDS011;30597;49.628;10.850;2024-03-02T10:50:12;3.70;;;3.40;;
44862;SDS011;30597;49.628;10.850;2024-03-02T10:52:37;3.50;;;3.20;;
44862;SDS011;30597;49.628;10.850;2024-03-02T10:55:07;3.23;;;3.03;;
44862;SDS011;30597;49.628;10.850;2024-03-02T10:57:50;3.70;;;3.40;;
44862;SDS011;30597;49.628;10.850;2024-03-02T11:00:18;3.53;;;3.23;;
44862;SDS011;30597;49.628;10.850;2024-03-02T11:02:56;4.00;;;3.70;;
44862;SDS011;30597;49.628;10.850;2024-03-02T11:05:26;3.80;;;3.50;;
44862;SDS011;30597;49.628;10.850;2024-03-02T11:07:53;4.00;;;2.80;;
44862;SDS011;30597;49.628;10.850;2024-03-02T11:10:25;4.30;;;3.40;;
44862;SDS011;30597;49.628;10.850;2024-03-02T11:12:53;3.63;;;3.33;;
44862;SDS011;30597;49.628;10.850;2024-03-02T11:15:25;3.43;;;3.13;;
44862;SDS011;30597;49.628;10.850;2024-03-02T11:17:52;3.80;;;3.50;;
44862;SDS011;30597;49.628;10.850;2024-03-02T11:20:19;4.00;;;3.70;;
44862;SDS011;30597;49.628;10.850;2024-03-02T11:22:45;3.20;;;2.90;;
44862;SDS011;30597;49.628;10.850;2024-03-02T11:25:27;2.93;;;2.73;;
44862;SDS011;30597;49.628;10.850;2024-03-02T11:33:03;4.13;;;3.40;;
44862;SDS011;30597;49.628;10.850;2024-03-02T11:35:33;3.20;;;2.90;;
44862;SDS011;30597;49.628;10.850;2024-03-02T11:38:03;3.20;;;3.00;;
44862;SDS011;30597;49.628;10.850;2024-03-02T11:40:29;3.10;;;2.90;;
44862;SDS011;30597;49.628;10.850;2024-03-02T11:42:56;3.47;;;3.17;;
44862;SDS011;30597;49.628;10.850;2024-03-02T11:45:24;2.83;;;2.63;;
44862;SDS011;30597;49.628;10.850;2024-03-02T11:47:51;3.07;;;2.87;;
44862;SDS011;30597;49.628;10.850;2024-03-02T11:50:28;3.37;;;3.17;;
44862;SDS011;30597;49.628;10.850;2024-03-02T11:52:55;2.97;;;2.77;;
44862;SDS011;30597;49.628;10.850;2024-03-02T11:55:22;3.00;;;2.70;;
44862;SDS011;30597;49.628;10.850;2024-03-02T11:57:50;2.70;;;2.50;;
44862;SDS011;30597;49.628;10.850;2024-03-02T12:00:18;2.93;;;2.73;;
44862;SDS011;30597;49.628;10.850;2024-03-02T12:02:44;3.10;;;2.90;;
44862;SDS011;30597;49.628;10.850;2024-03-02T12:05:14;3.20;;;2.90;;
44862;SDS011;30597;49.628;10.850;2024-03-02T12:07:44;3.00;;;2.80;;
44862;SDS011;30597;49.628;10.850;2024-03-02T12:10:10;2.73;;;2.53;;
44862;SDS011;30597;49.628;10.850;2024-03-02T12:12:36;5.50;;;3.07;;
44862;SDS011;30597;49.628;10.850;2024-03-02T12:15:01;4.30;;;4.00;;
44862;SDS011;30597;49.628;10.850;2024-03-02T12:17:28;2.77;;;2.57;;
44862;SDS011;30597;49.628;10.850;2024-03-02T12:19:54;2.90;;;2.70;;
44862;SDS011;30597;49.628;10.850;2024-03-02T12:22:19;3.00;;;2.67;;
44862;SDS011;30597;49.628;10.850;2024-03-02T12:24:46;3.00;;;2.80;;
44862;SDS011;30597;49.628;10.850;2024-03-02T12:27:12;2.43;;;2.23;;
44862;SDS011;30597;49.628;10.850;2024-03-02T12:29:40;5.13;;;2.73;;
44862;SDS011;30597;49.628;10.850;2024-03-02T12:32:06;2.93;;;2.73;;
44862;SDS011;30597;49.628;10.850;2024-03-02T12:34:32;4.60;;;2.80;;
44862;SDS011;30597;49.628;10.850;2024-03-02T12:36:57;3.13;;;2.90;;
44862;SDS011;30597;49.628;10.850;2024-03-02T12:39:23;2.87;;;2.60;;
44862;SDS011;30597;49.628;10.850;2024-03-02T12:41:49;2.60;;;2.40;;
44862;SDS011;30597;49.628;10.850;2024-03-02T12:44:16;2.70;;;2.50;;
44862;SDS011;30597;49.628;10.850;2024-03-02T12:46:43;3.00;;;2.80;;
44862;SDS011;30597;49.628;10.850;2024-03-02T12:49:09;3.63;;;2.60;;
44862;SDS011;30597;49.628;10.850;2024-03-02T12:51:37;2.90;;;2.70;;
44862;SDS011;30597;49.628;10.850;2024-03-02T12:54:05;3.30;;;3.00;;
44862;SDS011;30597;49.628;10.850;2024-03-02T12:56:35;3.07;;;2.87;;
44862;SDS011;30597;49.628;10.850;2024-03-02T12:59:04;3.40;;;2.80;;
44862;SDS011;30597;49.628;10.850;2024-03-02T13:01:29;3.17;;;2.67;;
44862;SDS011;30597;49.628;10.850;2024-03-02T13:03:57;3.87;;;2.87;;
44862;SDS011;30597;49.628;10.850;2024-03-02T13:06:23;3.90;;;2.60;;
44862;SDS011;30597;49.628;10.850;2024-03-02T13:08:49;2.60;;;2.40;;
44862;SDS011;30597;49.628;10.850;2024-03-02T13:11:15;2.90;;;2.70;;
44862;SDS011;30597;49.628;10.850;2024-03-02T13:13:42;2.47;;;2.27;;
44862;SDS011;30597;49.628;10.850;2024-03-02T13:16:08;3.00;;;2.73;;
44862;SDS011;30597;49.628;10.850;2024-03-02T13:18:35;2.40;;;2.20;;
44862;SDS011;30597;49.628;10.850;2024-03-02T13:21:00;2.60;;;2.40;;
44862;SDS011;30597;49.628;10.850;2024-03-02T13:23:26;4.17;;;2.40;;
44862;SDS011;30597;49.628;10.850;2024-03-02T13:25:52;3.57;;;3.27;;
44862;SDS011;30597;49.628;10.850;2024-03-02T13:28:17;3.03;;;2.83;;
44862;SDS011;30597;49.628;10.850;2024-03-02T13:30:43;2.63;;;2.43;;
44862;SDS011;30597;49.628;10.850;2024-03-02T13:33:08;2.80;;;2.30;;
44862;SDS011;30597;49.628;10.850;2024-03-02T13:35:34;2.57;;;2.37;;
44862;SDS011;30597;49.628;10.850;2024-03-02T13:37:59;2.73;;;2.53;;
44862;SDS011;30597;49.628;10.850;2024-03-02T13:40:25;2.97;;;2.70;;
44862;SDS011;30597;49.628;10.850;2024-03-02T13:42:50;3.33;;;2.83;;
44862;SDS011;30597;49.628;10.850;2024-03-02T13:45:18;3.17;;;2.87;;
44862;SDS011;30597;49.628;10.850;2024-03-02T13:47:44;3.20;;;2.70;;
44862;SDS011;30597;49.628;10.850;2024-03-02T13:50:09;3.00;;;2.70;;
44862;SDS011;30597;49.628;10.850;2024-03-02T13:52:35;2.70;;;2.50;;
44862;SDS011;30597;49.628;10.850;2024-03-02T13:55:01;4.90;;;2.90;;
44862;SDS011;30597;49.628;10.850;2024-03-02T13:57:27;2.90;;;2.63;;
44862;SDS011;30597;49.628;10.850;2024-03-02T13:59:53;3.43;;;3.13;;
44862;SDS011;30597;49.628;10.850;2024-03-02T14:02:19;3.17;;;2.83;;
44862;SDS011;30597;49.628;10.850;2024-03-02T14:04:45;4.10;;;2.80;;
44862;SDS011;30597;49.628;10.850;2024-03-02T14:07:13;3.87;;;2.97;;
44862;SDS011;30597;49.628;10.850;2024-03-02T14:09:39;4.60;;;3.03;;
44862;SDS011;30597;49.628;10.850;2024-03-02T14:12:04;3.17;;;2.87;;
44862;SDS011;30597;49.628;10.850;2024-03-02T14:14:31;3.07;;;2.77;;
44862;SDS011;30597;49.628;10.850;2024-03-02T14:16:57;3.83;;;2.90;;
44862;SDS011;30597;49.628;10.850;2024-03-02T14:19:29;3.90;;;3.47;;
44862;SDS011;30597;49.628;10.850;2024-03-02T14:21:54;3.30;;;2.70;;
44862;SDS011;30597;49.628;10.850;2024-03-02T14:24:21;3.40;;;3.10;;
44862;SDS011;30597;49.628;10.850;2024-03-02T14:26:51;3.10;;;2.80;;
44862;SDS011;30597;49.628;10.850;2024-03-02T14:29:17;3.57;;;3.27;;
44862;SDS011;30597;49.628;10.850;2024-03-02T14:31:43;3.40;;;3.10;;
44862;SDS011;30597;49.628;10.850;2024-03-02T14:34:09;3.20;;;2.90;;
44862;SDS011;30597;49.628;10.850;2024-03-02T14:36:34;3.70;;;3.33;;